createdAt,value
2023-01-25T00:01:20.800Z,102216.50
2023-01-25T00:03:51.745Z,102217.31
2023-01-25T00:06:23.120Z,102220.66
2023-01-25T00:08:54.596Z,102207.56
2023-01-25T00:11:25.903Z,102207.66
2023-01-25T00:13:57.411Z,102220.13
2023-01-25T00:16:28.862Z,102208.88
2023-01-25T00:19:00.213Z,102205.84
2023-01-25T00:21:31.464Z,102216.03
2023-01-25T00:24:05.636Z,102207.72
2023-01-25T00:26:37.824Z,102206.16
2023-01-25T00:29:09.158Z,102212.50
2023-01-25T00:31:49.775Z,102215.91
2023-01-25T00:34:32.794Z,102211.72
2023-01-25T00:37:05.754Z,102212.59
2023-01-25T00:39:38.134Z,102206.56
2023-01-25T00:42:14.350Z,102215.09
2023-01-25T00:44:48.708Z,102210.09
2023-01-25T00:47:20.516Z,102204.00
2023-01-25T00:49:58.403Z,102212.38
2023-01-25T00:52:30.471Z,102210.00
2023-01-25T00:55:03.054Z,102205.94
2023-01-25T00:57:34.584Z,102205.50
2023-01-25T01:00:06.885Z,102200.84
2023-01-25T01:02:38.111Z,102212.16
2023-01-25T01:05:10.020Z,102203.56
2023-01-25T01:07:42.005Z,102210.66
2023-01-25T01:10:13.330Z,102211.97
2023-01-25T01:12:44.376Z,102203.41
2023-01-25T01:15:18.799Z,102205.88
2023-01-25T01:17:50.204Z,102208.84
2023-01-25T01:20:21.660Z,102212.19
2023-01-25T01:22:56.941Z,102199.84
2023-01-25T01:25:31.523Z,102208.59
2023-01-25T01:28:03.553Z,102206.72
2023-01-25T01:30:36.012Z,102203.69
2023-01-25T01:33:08.137Z,102214.13
2023-01-25T01:35:40.371Z,102210.00
2023-01-25T01:38:19.606Z,102207.00
2023-01-25T01:40:52.065Z,102212.19
2023-01-25T01:43:27.525Z,102203.44
2023-01-25T01:46:01.882Z,102200.41
2023-01-25T01:48:54.174Z,102194.78
2023-01-25T01:51:32.478Z,102196.97
2023-01-25T01:54:25.894Z,102195.56
2023-01-25T01:57:02.096Z,102183.25
2023-01-25T01:59:43.556Z,102181.06
2023-01-25T02:02:16.705Z,102187.31
2023-01-25T02:04:50.910Z,102183.28
2023-01-25T02:07:37.700Z,102178.28
2023-01-25T02:10:12.141Z,102178.88
2023-01-25T02:12:49.624Z,102170.25
2023-01-25T02:15:21.112Z,102176.28
2023-01-25T02:17:52.852Z,102170.31
2023-01-25T02:20:47.676Z,102178.31
2023-01-25T02:23:35.363Z,102170.25
2023-01-25T02:26:08.268Z,102154.50
2023-01-25T02:28:58.997Z,102156.31
2023-01-25T02:31:35.546Z,102157.84
2023-01-25T02:34:07.602Z,102157.97
2023-01-25T02:36:38.857Z,102145.50
2023-01-25T02:39:15.575Z,102149.13
2023-01-25T02:41:52.028Z,102152.53
2023-01-25T02:44:34.483Z,102145.50
2023-01-25T02:47:07.383Z,102134.13
2023-01-25T02:49:39.886Z,102140.75
2023-01-25T02:52:15.631Z,102128.97
2023-01-25T02:54:48.470Z,102125.41
2023-01-25T02:57:24.990Z,102127.91
2023-01-25T02:59:57.655Z,102121.09
2023-01-25T03:02:30.364Z,102124.25
2023-01-25T03:05:02.111Z,102116.09
2023-01-25T03:07:33.288Z,102124.44
2023-01-25T03:10:04.026Z,102115.38
2023-01-25T03:12:37.665Z,102114.75
2023-01-25T03:15:09.370Z,102108.63
2023-01-25T03:17:41.455Z,102109.31
2023-01-25T03:20:18.136Z,102102.81
2023-01-25T03:22:50.522Z,102106.63
2023-01-25T03:25:21.693Z,102099.66
2023-01-25T03:28:01.944Z,102097.44
2023-01-25T03:30:33.589Z,102096.28
2023-01-25T03:33:04.923Z,102094.47
2023-01-25T03:35:37.154Z,102091.97
2023-01-25T03:38:09.120Z,102095.53
2023-01-25T03:40:39.845Z,102084.75
2023-01-25T03:43:11.193Z,102085.97
2023-01-25T03:45:42.455Z,102078.09
2023-01-25T03:48:15.008Z,102087.47
2023-01-25T03:50:50.499Z,102090.69
2023-01-25T03:53:30.632Z,102081.72
2023-01-25T03:56:13.594Z,102074.63
2023-01-25T03:58:50.140Z,102080.81
2023-01-25T04:01:24.529Z,102075.50
2023-01-25T04:03:56.370Z,102076.00
2023-01-25T04:06:34.050Z,102068.63
2023-01-25T04:09:07.732Z,102066.56
2023-01-25T04:11:46.423Z,102068.44
2023-01-25T04:14:35.094Z,102062.44
2023-01-25T04:17:12.904Z,102058.09
2023-01-25T04:19:52.165Z,102065.91
2023-01-25T04:22:28.183Z,102057.94
2023-01-25T04:25:00.555Z,102046.81
2023-01-25T04:27:32.757Z,102052.44
2023-01-25T04:30:10.356Z,102054.34
2023-01-25T04:32:41.781Z,102051.66
2023-01-25T04:35:27.200Z,102052.13
2023-01-25T04:38:01.575Z,102055.84
2023-01-25T04:40:44.070Z,102057.03
2023-01-25T04:43:19.255Z,102058.66
2023-01-25T04:45:51.088Z,102060.56
2023-01-25T04:48:32.398Z,102055.16
2023-01-25T04:51:08.475Z,102058.94
2023-01-25T04:53:39.772Z,102068.16
2023-01-25T04:56:13.279Z,102066.38
2023-01-25T04:58:55.730Z,102069.94
2023-01-25T05:01:26.905Z,102066.03
2023-01-25T05:04:00.509Z,102065.84
2023-01-25T05:06:40.624Z,102066.88
2023-01-25T05:09:12.626Z,102061.56
2023-01-25T05:11:45.844Z,102052.84
2023-01-25T05:14:36.205Z,102058.47
2023-01-25T05:17:10.001Z,102060.25
2023-01-25T05:19:41.085Z,102057.78
2023-01-25T05:22:18.673Z,102065.72
2023-01-25T05:24:52.398Z,102062.25
2023-01-25T05:27:24.344Z,102058.31
2023-01-25T05:29:58.849Z,102061.34
2023-01-25T05:32:51.640Z,102055.03
2023-01-25T05:35:22.699Z,102054.31
2023-01-25T05:38:01.389Z,102051.22
2023-01-25T05:40:32.754Z,102065.56
2023-01-25T05:43:04.988Z,102070.47
2023-01-25T05:45:35.976Z,102074.59
2023-01-25T05:48:08.156Z,102075.72
2023-01-25T05:50:39.296Z,102080.56
2023-01-25T05:53:14.333Z,102076.53
2023-01-25T05:55:45.240Z,102068.03
2023-01-25T05:58:20.910Z,102075.16
2023-01-25T06:00:52.175Z,102078.59
2023-01-25T06:03:34.624Z,102074.31
2023-01-25T06:06:06.146Z,102078.75
2023-01-25T06:08:38.258Z,102079.97
2023-01-25T06:11:18.316Z,102081.25
2023-01-25T06:13:50.355Z,102084.44
2023-01-25T06:16:22.041Z,102086.31
2023-01-25T06:18:58.971Z,102089.78
2023-01-25T06:21:38.770Z,102106.09
2023-01-25T06:24:10.164Z,102094.88
2023-01-25T06:26:41.548Z,102098.47
2023-01-25T06:29:12.737Z,102099.28
2023-01-25T06:31:43.963Z,102097.41
2023-01-25T06:34:15.150Z,102101.22
2023-01-25T06:36:46.179Z,102111.00
2023-01-25T06:39:17.270Z,102113.47
2023-01-25T06:41:49.423Z,102117.91
2023-01-25T06:44:20.689Z,102119.03
2023-01-25T06:46:51.712Z,102116.59
2023-01-25T06:49:23.273Z,102122.84
2023-01-25T06:51:54.447Z,102128.06
2023-01-25T06:54:25.609Z,102130.28
2023-01-25T06:56:57.053Z,102136.06
2023-01-25T06:59:29.371Z,102139.63
2023-01-25T07:02:00.487Z,102144.22
2023-01-25T07:04:31.466Z,102148.59
2023-01-25T07:07:02.372Z,102153.16
2023-01-25T07:09:33.204Z,102154.78
2023-01-25T07:12:06.270Z,102149.56
2023-01-25T07:14:37.323Z,102164.56
2023-01-25T07:17:08.252Z,102162.63
2023-01-25T07:19:39.140Z,102165.94
2023-01-25T07:22:10.202Z,102166.63
2023-01-25T07:24:41.297Z,102163.84
2023-01-25T07:27:12.388Z,102168.44
2023-01-25T07:29:43.884Z,102161.28
2023-01-25T07:32:18.221Z,102167.22
2023-01-25T07:34:49.348Z,102170.47
2023-01-25T07:37:20.752Z,102177.03
2023-01-25T07:39:52.071Z,102179.97
2023-01-25T07:42:23.124Z,102185.38
2023-01-25T07:44:57.030Z,102187.72
2023-01-25T07:47:27.934Z,102190.00
2023-01-25T07:49:59.112Z,102176.09
2023-01-25T07:52:30.491Z,102188.91
2023-01-25T07:55:01.472Z,102190.19
2023-01-25T07:57:33.248Z,102195.94
2023-01-25T08:00:05.716Z,102201.03
2023-01-25T08:02:42.961Z,102204.53
2023-01-25T08:05:14.162Z,102208.56
2023-01-25T08:07:45.151Z,102207.66
2023-01-25T08:10:16.799Z,102213.91
2023-01-25T08:12:48.713Z,102211.94
2023-01-25T08:15:19.665Z,102214.59
2023-01-25T08:17:51.004Z,102221.09
2023-01-25T08:20:23.926Z,102212.03
2023-01-25T08:22:55.171Z,102216.91
2023-01-25T08:25:26.464Z,102228.31
2023-01-25T08:27:57.583Z,102224.88
2023-01-25T08:30:28.870Z,102223.97
2023-01-25T08:32:59.918Z,102228.84
2023-01-25T08:35:31.083Z,102232.41
2023-01-25T08:38:02.406Z,102241.84
2023-01-25T08:40:35.179Z,102244.81
2023-01-25T08:43:07.992Z,102237.34
2023-01-25T08:45:39.240Z,102246.06
2023-01-25T08:48:10.429Z,102246.50
2023-01-25T08:50:41.754Z,102257.16
2023-01-25T08:53:13.109Z,102258.56
2023-01-25T08:55:44.653Z,102259.97
2023-01-25T08:58:17.555Z,102266.25
2023-01-25T09:00:49.265Z,102268.91
2023-01-25T09:03:20.311Z,102277.91
2023-01-25T09:05:51.451Z,102276.09
2023-01-25T09:08:23.042Z,102279.56
2023-01-25T09:10:54.163Z,102291.19
2023-01-25T09:13:25.215Z,102286.25
2023-01-25T09:16:11.380Z,102283.69
2023-01-25T09:18:44.068Z,102292.56
2023-01-25T09:21:18.036Z,102289.50
2023-01-25T09:24:09.101Z,102293.88
2023-01-25T09:26:46.005Z,102299.22
2023-01-25T09:29:19.300Z,102298.56
2023-01-25T09:31:50.558Z,102291.28
2023-01-25T09:34:38.221Z,102296.59
2023-01-25T09:37:09.199Z,102297.41
2023-01-25T09:39:40.314Z,102297.13
2023-01-25T09:42:22.136Z,102306.59
2023-01-25T09:45:08.524Z,102297.66
2023-01-25T09:47:45.957Z,102299.66
2023-01-25T09:50:28.338Z,102305.25
2023-01-25T09:53:15.452Z,102298.41
2023-01-25T09:55:47.077Z,102299.47
2023-01-25T09:58:26.820Z,102303.28
2023-01-25T10:01:14.414Z,102306.47
2023-01-25T10:04:11.804Z,102300.47
2023-01-25T10:06:55.169Z,102298.69
2023-01-25T10:09:42.669Z,102292.66
2023-01-25T10:12:23.974Z,102291.97
2023-01-25T10:14:55.343Z,102293.50
2023-01-25T10:17:41.745Z,102290.78
2023-01-25T10:20:35.848Z,102284.25
2023-01-25T10:23:31.741Z,102289.34
2023-01-25T10:26:06.241Z,102290.56
2023-01-25T10:29:03.367Z,102286.19
2023-01-25T10:31:46.830Z,102292.81
2023-01-25T10:34:50.736Z,102301.94
2023-01-25T10:37:31.333Z,102299.22
2023-01-25T10:40:04.121Z,102298.38
2023-01-25T10:43:20.917Z,102309.47
2023-01-25T10:45:52.539Z,102315.53
2023-01-25T10:48:28.957Z,102318.47
2023-01-25T10:51:01.097Z,102312.19
2023-01-25T10:53:45.615Z,102309.34
2023-01-25T10:56:27.794Z,102314.81
2023-01-25T10:59:17.942Z,102317.63
2023-01-25T11:01:49.487Z,102312.19
2023-01-25T11:04:38.392Z,102314.41
2023-01-25T11:07:29.008Z,102304.31
2023-01-25T11:10:00.301Z,102306.34
2023-01-25T11:12:32.797Z,102301.69
2023-01-25T11:15:26.207Z,102302.66
2023-01-25T11:18:08.499Z,102313.84
2023-01-25T11:20:39.547Z,102305.09
2023-01-25T11:23:30.827Z,102305.56
2023-01-25T11:26:17.369Z,102302.56
2023-01-25T11:28:50.530Z,102308.00
2023-01-25T11:31:24.950Z,102306.47
2023-01-25T11:33:55.895Z,102301.59
2023-01-25T11:36:46.520Z,102291.34
2023-01-25T11:39:33.526Z,102300.41
2023-01-25T11:42:25.478Z,102295.72
2023-01-25T11:44:59.053Z,102285.91
2023-01-25T11:47:58.856Z,102283.41
2023-01-25T11:50:48.614Z,102271.97
2023-01-25T11:53:53.633Z,102259.06
2023-01-25T11:56:47.997Z,102259.69
2023-01-25T11:59:37.347Z,102260.03
2023-01-25T12:02:30.228Z,102263.66
2023-01-25T12:05:21.897Z,102255.78
2023-01-25T12:08:02.567Z,102247.00
2023-01-25T12:11:02.961Z,102238.28
2023-01-25T12:14:05.155Z,102234.19
2023-01-25T12:16:43.457Z,102241.50
2023-01-25T12:19:24.220Z,102231.34
2023-01-25T12:22:20.420Z,102234.31
2023-01-25T12:25:23.492Z,102226.75
2023-01-25T12:28:23.635Z,102241.63
2023-01-25T12:31:05.567Z,102237.16
2023-01-25T12:33:41.012Z,102225.47
2023-01-25T12:36:21.344Z,102219.09
2023-01-25T12:39:11.799Z,102201.63
2023-01-25T12:42:05.680Z,102202.34
2023-01-25T12:44:50.053Z,102205.50
2023-01-25T12:47:37.637Z,102200.22
2023-01-25T12:50:21.254Z,102201.59
2023-01-25T12:53:01.177Z,102197.44
2023-01-25T12:55:32.510Z,102209.47
2023-01-25T12:58:07.981Z,102199.56
2023-01-25T13:00:47.203Z,102201.94
2023-01-25T13:03:37.905Z,102209.25
2023-01-25T13:06:42.236Z,102199.91
2023-01-25T13:09:28.666Z,102190.94
2023-01-25T13:12:00.907Z,102193.84
2023-01-25T13:14:37.675Z,102191.78
2023-01-25T13:17:25.280Z,102191.66
2023-01-25T13:19:56.604Z,102203.97
2023-01-25T13:22:45.916Z,102205.66
2023-01-25T13:25:19.580Z,102200.91
2023-01-25T13:27:50.932Z,102193.75
2023-01-25T13:30:33.229Z,102193.25
2023-01-25T13:33:04.950Z,102193.56
2023-01-25T13:35:43.809Z,102193.09
2023-01-25T13:38:20.846Z,102196.53
2023-01-25T13:41:12.363Z,102185.50
2023-01-25T13:43:45.343Z,102190.22
2023-01-25T13:46:18.684Z,102185.81
2023-01-25T13:48:56.322Z,102194.69
2023-01-25T13:51:29.919Z,102199.38
2023-01-25T13:54:01.921Z,102207.41
2023-01-25T13:56:36.038Z,102206.22
2023-01-25T13:59:06.991Z,102189.06
2023-01-25T14:01:38.868Z,102193.41
2023-01-25T14:04:14.278Z,102194.47
2023-01-25T14:06:45.638Z,102195.22
2023-01-25T14:09:17.848Z,102190.72
2023-01-25T14:11:55.174Z,102183.03
2023-01-25T14:14:36.816Z,102181.97
2023-01-25T14:17:20.421Z,102178.44
2023-01-25T14:19:52.987Z,102177.91
2023-01-25T14:22:31.886Z,102172.19
2023-01-25T14:25:18.573Z,102169.19
2023-01-25T14:27:56.407Z,102167.16
2023-01-25T14:30:35.250Z,102166.56
2023-01-25T14:33:19.733Z,102173.56
2023-01-25T14:35:59.995Z,102177.63
2023-01-25T14:38:43.416Z,102178.06
2023-01-25T14:41:48.830Z,102181.59
2023-01-25T14:44:26.853Z,102173.19
2023-01-25T14:47:29.433Z,102173.63
2023-01-25T14:50:50.883Z,102175.66
2023-01-25T14:53:26.670Z,102171.81
2023-01-25T14:55:57.563Z,102177.59
2023-01-25T14:58:30.592Z,102175.66
2023-01-25T15:01:03.857Z,102168.75
2023-01-25T15:03:37.485Z,102183.63
2023-01-25T15:06:09.231Z,102178.59
2023-01-25T15:08:42.203Z,102180.47
2023-01-25T15:11:50.552Z,102171.97
2023-01-25T15:14:23.734Z,102161.84
2023-01-25T15:16:54.630Z,102160.03
2023-01-25T15:19:31.385Z,102157.91
2023-01-25T15:22:03.534Z,102149.63
2023-01-25T15:24:35.355Z,102156.03
2023-01-25T15:27:06.731Z,102150.09
2023-01-25T15:29:37.581Z,102153.88
2023-01-25T15:32:14.468Z,102147.00
2023-01-25T15:34:45.518Z,102149.81
2023-01-25T15:37:16.627Z,102152.31
2023-01-25T15:39:48.037Z,102151.41
2023-01-25T15:42:19.195Z,102157.03
2023-01-25T15:44:50.205Z,102163.47
2023-01-25T15:47:21.481Z,102164.06
2023-01-25T15:49:53.154Z,102156.25
2023-01-25T15:52:24.275Z,102146.19
2023-01-25T15:55:01.395Z,102147.38
2023-01-25T15:57:35.728Z,102149.16
2023-01-25T16:00:08.511Z,102154.25
2023-01-25T16:02:40.153Z,102158.16
2023-01-25T16:05:11.307Z,102156.88
2023-01-25T16:07:45.080Z,102157.31
2023-01-25T16:10:26.708Z,102150.84
2023-01-25T16:12:57.691Z,102148.69
2023-01-25T16:15:28.847Z,102148.25
2023-01-25T16:18:00.156Z,102153.81
2023-01-25T16:20:31.088Z,102145.44
2023-01-25T16:23:02.828Z,102142.84
2023-01-25T16:25:33.729Z,102153.69
2023-01-25T16:28:05.184Z,102150.44
2023-01-25T16:30:36.417Z,102158.28
2023-01-25T16:33:07.331Z,102160.03
2023-01-25T16:35:38.426Z,102142.81
2023-01-25T16:38:11.054Z,102152.75
2023-01-25T16:40:42.526Z,102140.94
2023-01-25T16:43:13.551Z,102153.59
2023-01-25T16:45:44.499Z,102140.31
2023-01-25T16:48:19.237Z,102159.16
2023-01-25T16:50:52.443Z,102153.16
2023-01-25T16:53:23.515Z,102162.34
2023-01-25T16:55:54.349Z,102145.31
2023-01-25T16:58:25.419Z,102149.31
2023-01-25T17:00:56.587Z,102151.16
2023-01-25T17:03:27.930Z,102147.94
2023-01-25T17:05:58.988Z,102158.63
2023-01-25T17:08:30.897Z,102150.88
2023-01-25T17:11:08.875Z,102154.56
2023-01-25T17:13:40.287Z,102150.50
2023-01-25T17:16:11.655Z,102148.44
2023-01-25T17:18:42.855Z,102168.56
2023-01-25T17:21:19.179Z,102161.97
2023-01-25T17:23:50.563Z,102164.78
2023-01-25T17:26:22.893Z,102165.84
2023-01-25T17:28:54.490Z,102159.63
2023-01-25T17:31:28.778Z,102169.66
2023-01-25T17:34:02.886Z,102174.88
2023-01-25T17:36:33.848Z,102177.56
2023-01-25T17:39:06.747Z,102172.34
2023-01-25T17:41:37.705Z,102158.78
2023-01-25T17:44:08.615Z,102163.75
2023-01-25T17:46:39.807Z,102172.44
2023-01-25T17:49:14.589Z,102169.28
2023-01-25T17:51:46.057Z,102164.06
2023-01-25T17:54:17.732Z,102157.09
2023-01-25T17:56:49.102Z,102152.22
2023-01-25T17:59:20.112Z,102167.09
2023-01-25T18:01:51.968Z,102149.41
2023-01-25T18:04:22.917Z,102164.03
2023-01-25T18:06:53.993Z,102158.97
2023-01-25T18:09:26.546Z,102170.28
2023-01-25T18:11:57.870Z,102164.78
2023-01-25T18:14:30.915Z,102167.50
2023-01-25T18:17:02.653Z,102170.13
2023-01-25T18:19:34.387Z,102182.38
2023-01-25T18:22:05.580Z,102179.53
2023-01-25T18:24:37.870Z,102174.75
2023-01-25T18:27:19.535Z,102170.34
2023-01-25T18:30:22.953Z,102174.75
2023-01-25T18:32:54.022Z,102185.63
2023-01-25T18:35:26.577Z,102175.44
2023-01-25T18:37:58.138Z,102177.94
2023-01-25T18:40:31.281Z,102176.50
2023-01-25T18:43:02.993Z,102173.53
2023-01-25T18:45:33.867Z,102177.06
2023-01-25T18:48:07.508Z,102179.72
2023-01-25T18:50:42.991Z,102188.69
2023-01-25T18:53:14.423Z,102181.31
2023-01-25T18:55:45.543Z,102178.38
2023-01-25T18:58:16.836Z,102176.66
2023-01-25T19:00:47.907Z,102172.09
2023-01-25T19:03:19.236Z,102172.81
2023-01-25T19:05:53.956Z,102172.59
2023-01-25T19:08:26.706Z,102172.91
2023-01-25T19:11:02.783Z,102163.66
2023-01-25T19:13:36.606Z,102168.00
2023-01-25T19:16:07.933Z,102171.16
2023-01-25T19:18:42.029Z,102166.03
2023-01-25T19:21:13.011Z,102165.63
2023-01-25T19:23:44.225Z,102168.38
2023-01-25T19:26:18.642Z,102154.53
2023-01-25T19:28:50.219Z,102156.50
2023-01-25T19:31:25.883Z,102151.16
2023-01-25T19:33:58.863Z,102153.81
2023-01-25T19:36:32.335Z,102153.31
2023-01-25T19:39:04.495Z,102142.09
2023-01-25T19:41:35.837Z,102145.03
2023-01-25T19:44:08.723Z,102142.34
2023-01-25T19:46:40.401Z,102149.06
2023-01-25T19:49:14.590Z,102149.94
2023-01-25T19:51:50.269Z,102143.66
2023-01-25T19:54:23.069Z,102138.53
2023-01-25T19:56:54.092Z,102134.38
2023-01-25T19:59:27.191Z,102129.22
2023-01-25T20:01:58.492Z,102130.53
2023-01-25T20:04:29.609Z,102132.97
2023-01-25T20:07:00.739Z,102127.47
2023-01-25T20:09:32.250Z,102108.00
2023-01-25T20:12:07.156Z,102123.34
2023-01-25T20:14:39.372Z,102115.53
2023-01-25T20:17:10.708Z,102105.00
2023-01-25T20:19:41.823Z,102112.09
2023-01-25T20:22:14.060Z,102110.88
2023-01-25T20:24:45.260Z,102100.06
2023-01-25T20:27:16.663Z,102098.22
2023-01-25T20:29:49.659Z,102104.22
2023-01-25T20:32:32.057Z,102113.03
2023-01-25T20:35:08.473Z,102102.63
2023-01-25T20:37:39.948Z,102096.84
2023-01-25T20:40:11.634Z,102099.47
2023-01-25T20:42:42.600Z,102105.78
2023-01-25T20:45:18.345Z,102098.72
2023-01-25T20:47:49.385Z,102093.53
2023-01-25T20:50:20.511Z,102098.41
2023-01-25T20:52:51.493Z,102092.06
2023-01-25T20:55:22.771Z,102098.34
2023-01-25T20:57:54.505Z,102093.06
2023-01-25T21:00:26.850Z,102103.13
2023-01-25T21:02:57.849Z,102103.34
2023-01-25T21:05:29.445Z,102090.16
2023-01-25T21:07:59.881Z,102092.00
2023-01-25T21:10:31.079Z,102087.78
2023-01-25T21:13:02.421Z,102085.38
2023-01-25T21:15:34.142Z,102085.41
2023-01-25T21:18:05.432Z,102086.84
2023-01-25T21:20:37.654Z,102084.81
2023-01-25T21:23:08.926Z,102075.34
2023-01-25T21:25:39.953Z,102080.03
2023-01-25T21:28:10.855Z,102072.44
2023-01-25T21:30:42.000Z,102062.50
2023-01-25T21:33:13.232Z,102064.91
2023-01-25T21:35:44.623Z,102060.56
2023-01-25T21:38:15.761Z,102059.06
2023-01-25T21:40:47.185Z,102063.56
2023-01-25T21:43:19.348Z,102067.44
2023-01-25T21:46:08.590Z,102066.00
2023-01-25T21:48:57.847Z,102052.09
2023-01-25T21:51:38.145Z,102051.97
2023-01-25T21:54:09.626Z,102053.53
2023-01-25T21:56:40.670Z,102047.63
2023-01-25T21:59:11.635Z,102041.78
2023-01-25T22:01:44.495Z,102035.97
2023-01-25T22:04:16.948Z,102044.97
2023-01-25T22:06:50.111Z,102036.81
2023-01-25T22:09:21.327Z,102030.53
2023-01-25T22:11:53.180Z,102036.28
2023-01-25T22:14:24.648Z,102031.09
2023-01-25T22:16:57.509Z,102043.72
2023-01-25T22:19:28.823Z,102032.13
2023-01-25T22:22:00.225Z,102031.00
2023-01-25T22:24:31.107Z,102031.09
2023-01-25T22:27:06.652Z,102032.41
2023-01-25T22:29:37.858Z,102020.56
2023-01-25T22:32:09.015Z,102024.28
2023-01-25T22:34:40.210Z,102025.41
2023-01-25T22:37:14.027Z,102017.88
2023-01-25T22:39:46.227Z,102015.63
2023-01-25T22:42:17.402Z,102019.59
2023-01-25T22:44:48.466Z,102013.81
2023-01-25T22:47:19.403Z,102011.19
2023-01-25T22:49:50.684Z,102007.69
2023-01-25T22:52:21.850Z,102012.78
2023-01-25T22:54:53.242Z,102006.69
2023-01-25T22:57:23.970Z,102011.22
2023-01-25T22:59:55.013Z,101993.38
2023-01-25T23:02:26.336Z,101990.78
2023-01-25T23:04:57.565Z,101998.47
2023-01-25T23:07:28.736Z,101996.69
2023-01-25T23:09:59.538Z,101984.00
2023-01-25T23:12:30.632Z,101991.22
2023-01-25T23:15:04.041Z,101988.25
2023-01-25T23:17:53.897Z,101982.81
2023-01-25T23:20:25.200Z,101996.66
2023-01-25T23:22:56.673Z,101983.84
2023-01-25T23:25:28.079Z,101977.75
2023-01-25T23:27:59.531Z,101984.16
2023-01-25T23:30:30.528Z,101980.97
2023-01-25T23:33:01.544Z,101980.25
2023-01-25T23:35:32.337Z,101976.69
2023-01-25T23:38:03.357Z,101980.91
2023-01-25T23:40:34.076Z,101979.03
2023-01-25T23:43:04.973Z,101973.50
2023-01-25T23:45:35.846Z,101961.56
2023-01-25T23:48:06.775Z,101971.38
2023-01-25T23:50:37.812Z,101969.28
2023-01-25T23:53:09.325Z,101973.72
2023-01-25T23:55:40.534Z,101957.38
2023-01-25T23:58:11.621Z,101959.69
